Highland, Minnesota
Current Conditions -  °F | °C
As of 2:55 AM on Wednesday 28 Jan 2015 (Local Time) from KFKA Reporting Station
Overcast Overcast  
Wind Chill: -10°   Ceiling: 700
Heat Index: -4°   Visibility: 7mi
Dew Point: -5°   Wind: 12mph
Humidity: 93%   Direction: 150°SSE
Pressure: 30.11"   Gusts: NA
Location:  43.7165°N, 91.9871°W
Report Text: KFKA 280855Z AUTO 15010KT 7SM OVC007 M04/M05 A3011 RMK AO2 T10421052
Loading
Personal Weather Stations






























Interactive Weather Map New forecast layout! Learn more

10-Day Weather Forecast

Advertisements
Track Severe Weather on mobile